Time;durP1;ratioP1;P1;durP2;ratioP2;P2;SDS_P1;SDS_P2;PMS_P1;PMS_P2;Temp;Humidity;BMP_temperature;BMP_pressure;BME280_temperature;BME280_humidity;BME280_pressure;Samples;Min_cycle;Max_cycle;Signal;HPM_P1;HPM_P2
2023/10/21 00:01:45;;;;;;;19.20;9.70;;;;;;;11.36;89.05;96178.63;5135338;27;20079;-63
2023/10/21 00:04:13;;;;;;;14.73;9.40;;;;;;;11.37;88.96;96182.94;5135239;27;20047;-63
2023/10/21 00:06:40;;;;;;;13.98;10.45;;;;;;;11.35;89.19;96177.75;5135065;27;20090;-64
2023/10/21 00:09:07;;;;;;;14.88;9.93;;;;;;;11.39;88.54;96194.19;5135135;27;20051;-63
2023/10/21 00:11:34;;;;;;;10.07;8.77;;;;;;;11.37;88.06;96181.19;5135219;27;20122;-63
2023/10/21 00:14:01;;;;;;;10.05;8.98;;;;;;;11.30;88.15;96197.25;5135023;27;20055;-64
2023/10/21 00:16:30;;;;;;;12.07;9.10;;;;;;;11.33;87.61;96189.25;5135209;27;20066;-63
2023/10/21 00:18:57;;;;;;;10.00;8.95;;;;;;;11.32;87.39;96191.00;5135030;27;20043;-63
2023/10/21 00:21:25;;;;;;;10.75;9.00;;;;;;;11.31;86.84;96191.06;5134966;27;20496;-63
2023/10/21 00:23:52;;;;;;;16.52;10.07;;;;;;;11.27;87.14;96186.91;5134857;27;20553;-63
2023/10/21 00:26:19;;;;;;;16.88;9.43;;;;;;;11.24;87.07;96193.13;5134695;27;20134;-63
2023/10/21 00:28:46;;;;;;;15.73;10.50;;;;;;;11.25;88.88;96193.06;5134815;27;20071;-63
2023/10/21 00:31:13;;;;;;;11.57;9.82;;;;;;;11.16;89.17;96188.25;5134570;27;20488;-63
2023/10/21 00:33:41;;;;;;;12.27;10.40;;;;;;;11.02;91.26;96196.75;5134514;27;20051;-63
2023/10/21 00:36:08;;;;;;;10.40;9.10;;;;;;;11.07;91.59;96180.81;5134704;27;20043;-62
2023/10/21 00:38:35;;;;;;;13.48;9.98;;;;;;;11.09;91.11;96190.31;5134639;27;20115;-63
2023/10/21 00:41:02;;;;;;;11.63;9.18;;;;;;;11.09;90.41;96190.31;5134289;27;20057;-63
2023/10/21 00:43:34;;;;;;;11.18;9.02;;;;;;;11.09;89.38;96186.84;5134581;27;20125;-63
2023/10/21 00:46:04;;;;;;;11.90;8.43;;;;;;;11.05;89.36;96188.72;5134568;27;20046;-64
2023/10/21 00:48:32;;;;;;;14.18;10.10;;;;;;;11.00;89.60;96188.13;5134449;27;20051;-63
2023/10/21 00:51:01;;;;;;;20.02;11.55;;;;;;;11.02;91.50;96177.56;5134418;27;20043;-62
2023/10/21 00:53:31;;;;;;;18.90;10.77;;;;;;;11.07;91.34;96179.06;5134489;27;20480;-63
2023/10/21 00:55:58;;;;;;;13.10;10.13;;;;;;;11.02;91.04;96175.81;5134373;27;20499;-64
2023/10/21 00:58:27;;;;;;;10.63;8.73;;;;;;;11.04;90.07;96184.44;5134325;27;20505;-64
2023/10/21 01:00:55;;;;;;;13.43;9.48;;;;;;;11.00;89.45;96188.13;5134344;27;20047;-63
2023/10/21 01:03:22;;;;;;;11.65;8.95;;;;;;;10.97;89.74;96181.25;5134304;27;20049;-62
2023/10/21 01:05:50;;;;;;;16.02;10.48;;;;;;;10.93;89.60;96195.38;5134154;27;20047;-63
2023/10/21 01:08:18;;;;;;;14.00;10.32;;;;;;;10.95;89.04;96187.44;5134226;27;20547;-63
2023/10/21 01:10:45;;;;;;;10.57;9.25;;;;;;;10.91;89.09;96196.38;5134286;27;20047;-64
2023/10/21 01:13:12;;;;;;;14.30;10.20;;;;;;;10.91;88.96;96192.00;5134099;27;20053;-64
2023/10/21 01:15:39;;;;;;;22.08;10.02;;;;;;;10.92;89.88;96198.06;5134113;27;20134;-64
2023/10/21 01:18:08;;;;;;;26.35;10.82;;;;;;;10.84;89.82;96196.63;5134500;27;20087;-64
2023/10/21 01:20:35;;;;;;;13.07;10.75;;;;;;;10.89;90.39;96196.44;5134305;27;20043;-63
2023/10/21 01:23:03;;;;;;;14.38;10.70;;;;;;;10.90;90.60;96192.06;5134295;28;20126;-63
2023/10/21 01:25:32;;;;;;;12.00;10.07;;;;;;;10.95;91.06;96188.31;5134030;27;20408;-62
2023/10/21 01:28:00;;;;;;;12.77;9.75;;;;;;;10.88;89.98;96184.28;5134176;28;20046;-62
2023/10/21 01:30:27;;;;;;;13.23;9.60;;;;;;;10.86;90.03;96188.72;5134050;27;20047;-62
2023/10/21 01:32:54;;;;;;;12.95;9.65;;;;;;;10.89;89.42;96195.59;5133980;27;20054;-63
2023/10/21 01:35:21;;;;;;;13.48;8.98;;;;;;;10.89;90.92;96187.75;5133887;27;20046;-61
2023/10/21 01:37:49;;;;;;;17.85;10.32;;;;;;;10.88;91.16;96184.28;5133882;28;20043;-63
2023/10/21 01:40:16;;;;;;;15.70;10.60;;;;;;;10.90;92.47;96192.06;5134020;27;20047;-62
2023/10/21 01:42:44;;;;;;;21.60;10.70;;;;;;;10.85;92.24;96187.88;5133698;27;20047;-63
2023/10/21 01:45:11;;;;;;;13.48;10.65;;;;;;;10.88;92.40;96197.38;5133854;27;20107;-63
2023/10/21 01:47:38;;;;;;;13.77;10.85;;;;;;;10.89;91.88;96195.59;5133702;28;20504;-64
2023/10/21 01:50:08;;;;;;;14.35;9.75;;;;;;;10.84;90.72;96199.25;5133785;27;20449;-61
2023/10/21 01:52:36;;;;;;;11.85;9.38;;;;;;;10.86;90.95;96192.19;5135010;27;20484;-63
2023/10/21 01:55:04;;;;;;;14.98;9.20;;;;;;;10.81;90.85;96196.78;5137696;27;20053;-64
2023/10/21 01:57:32;;;;;;;15.25;9.40;;;;;;;10.81;91.06;96185.47;5137806;27;20556;-63
2023/10/21 02:00:04;;;;;;;18.60;11.45;;;;;;;10.74;90.87;96190.13;5137902;27;20080;-62
2023/10/21 02:02:31;;;;;;;12.25;9.75;;;;;;;10.79;90.87;96197.75;5137758;27;20139;-62
2023/10/21 02:04:58;;;;;;;17.88;10.10;;;;;;;10.74;91.20;96197.97;5137726;27;20047;-62
2023/10/21 02:07:25;;;;;;;13.85;10.25;;;;;;;10.70;92.14;96191.19;5137781;27;20082;-64
2023/10/21 02:09:52;;;;;;;19.05;9.95;;;;;;;10.74;91.49;96192.72;5137510;27;20515;-64
2023/10/21 02:12:19;;;;;;;13.38;9.82;;;;;;;10.77;91.06;96197.84;5137468;27;20096;-64
2023/10/21 02:14:46;;;;;;;14.55;9.93;;;;;;;10.75;91.11;96204.91;5137515;27;20047;-63
2023/10/21 02:17:14;;;;;;;12.80;9.57;;;;;;;10.78;90.84;96207.41;5137390;27;20043;-62
2023/10/21 02:19:41;;;;;;;20.63;10.23;;;;;;;10.75;90.63;96210.16;5137426;27;20047;-63
2023/10/21 02:22:08;;;;;;;18.00;11.13;;;;;;;10.77;90.38;96210.09;5137360;27;20075;-63
2023/10/21 02:24:36;;;;;;;12.93;9.38;;;;;;;10.79;90.10;96208.22;5137247;27;20051;-64
2023/10/21 02:27:03;;;;;;;17.08;10.10;;;;;;;10.80;89.69;96213.41;5137075;27;20051;-63
2023/10/21 02:29:32;;;;;;;15.95;9.57;;;;;;;10.74;90.31;96219.75;5137165;27;20043;-61
2023/10/21 02:31:59;;;;;;;12.95;9.52;;;;;;;10.72;89.89;96216.34;5137026;27;20103;-62
2023/10/21 02:34:28;;;;;;;14.07;8.63;;;;;;;10.68;90.34;96216.53;5137161;27;20438;-62
2023/10/21 02:36:55;;;;;;;16.33;9.38;;;;;;;10.67;90.57;96226.19;5137054;27;20050;-62
2023/10/21 02:39:22;;;;;;;12.25;9.63;;;;;;;10.66;90.55;96223.63;5137239;27;20130;-63
2023/10/21 02:41:50;;;;;;;20.23;9.88;;;;;;;10.65;90.17;96235.00;5136983;27;20075;-62
2023/10/21 02:44:17;;;;;;;15.20;10.23;;;;;;;10.65;89.84;96233.22;5136881;27;20047;-63
2023/10/21 02:46:44;;;;;;;14.27;9.25;;;;;;;10.67;89.65;96227.94;5136984;27;20467;-63
2023/10/21 02:49:11;;;;;;;11.20;9.77;;;;;;;10.58;90.06;96237.88;5136753;27;20049;-62
2023/10/21 02:51:39;;;;;;;13.48;9.02;;;;;;;10.59;90.18;96246.56;5136805;27;20085;-61
2023/10/21 02:54:07;;;;;;;15.77;9.00;;;;;;;10.58;90.44;96247.50;5136640;27;20043;-62
2023/10/21 02:56:34;;;;;;;14.40;10.20;;;;;;;10.55;90.05;96243.25;5136702;27;20085;-62
2023/10/21 02:59:02;;;;;;;11.75;9.27;;;;;;;10.51;90.29;96240.81;5136778;27;20483;-63
2023/10/21 03:01:30;;;;;;;17.52;8.73;;;;;;;10.57;90.28;96251.03;5136678;27;20405;-62
2023/10/21 03:03:57;;;;;;;13.80;9.43;;;;;;;10.54;89.81;96249.38;5136558;27;20089;-63
2023/10/21 03:06:24;;;;;;;11.45;8.30;;;;;;;10.55;89.28;96256.31;5136404;27;20043;-64
2023/10/21 03:08:52;;;;;;;11.85;8.32;;;;;;;10.49;89.63;96253.97;5136530;27;20043;-62
2023/10/21 03:11:19;;;;;;;14.65;9.57;;;;;;;10.50;89.64;96253.03;5136382;27;20506;-63
2023/10/21 03:13:47;;;;;;;15.15;8.65;;;;;;;10.51;89.67;96252.16;5136614;27;20099;-63
2023/10/21 03:16:15;;;;;;;13.38;8.15;;;;;;;10.47;90.06;96259.25;5136318;27;20134;-60
2023/10/21 03:18:45;;;;;;;10.75;8.65;;;;;;;10.44;90.89;96255.88;5136128;27;20044;-62
2023/10/21 03:21:12;;;;;;;7.60;6.80;;;;;;;10.47;92.25;96250.56;5136243;27;20050;-62
2023/10/21 03:23:39;;;;;;;14.35;8.68;;;;;;;10.42;91.50;96248.09;5136119;27;20047;-61
2023/10/21 03:26:08;;;;;;;14.27;9.73;;;;;;;10.44;91.79;96253.25;5136071;27;20093;-62
2023/10/21 03:28:36;;;;;;;11.40;9.65;;;;;;;10.45;91.52;96254.97;5136048;27;20134;-64
2023/10/21 03:31:05;;;;;;;13.80;8.55;;;;;;;10.42;91.30;96261.16;5135931;27;20503;-61
2023/10/21 03:33:33;;;;;;;10.63;7.55;;;;;;;10.44;90.53;96250.66;5135983;27;20047;-64
2023/10/21 03:36:01;;;;;;;11.95;8.23;;;;;;;10.42;90.17;96255.94;5135997;27;20108;-62
2023/10/21 03:38:29;;;;;;;10.98;8.50;;;;;;;10.40;89.96;96249.09;5135838;27;20133;-62
2023/10/21 03:40:57;;;;;;;10.40;8.07;;;;;;;10.35;90.01;96251.88;5135871;27;20050;-64
2023/10/21 03:43:27;;;;;;;14.73;8.00;;;;;;;10.33;90.17;96243.28;5135913;27;20130;-63
2023/10/21 03:45:55;;;;;;;15.43;9.38;;;;;;;10.33;90.05;96249.34;5135835;27;20047;-64
2023/10/21 03:48:23;;;;;;;18.08;9.75;;;;;;;10.25;90.41;96246.19;5135700;27;20078;-62
2023/10/21 03:50:51;;;;;;;16.30;9.20;;;;;;;10.28;91.06;96251.31;5135970;27;20097;-63
2023/10/21 03:53:18;;;;;;;10.45;8.65;;;;;;;10.24;90.64;96255.78;5135505;27;20047;-63
2023/10/21 03:55:46;;;;;;;18.83;9.77;;;;;;;10.21;90.75;96249.84;5135343;27;20047;-60
2023/10/21 03:58:13;;;;;;;15.95;8.85;;;;;;;10.18;91.48;96247.38;5135469;27;20055;-61
2023/10/21 04:00:41;;;;;;;14.23;8.98;;;;;;;10.19;91.99;96243.84;5135381;27;20096;-61
2023/10/21 04:03:09;;;;;;;12.50;8.43;;;;;;;10.21;91.06;96242.84;5135453;27;20519;-63
2023/10/21 04:05:36;;;;;;;20.95;9.20;;;;;;;10.23;90.54;96242.78;5135298;27;20043;-62
2023/10/21 04:08:05;;;;;;;14.18;8.10;;;;;;;10.22;90.56;96247.19;5135260;27;20043;-62
2023/10/21 04:10:33;;;;;;;11.73;8.55;;;;;;;10.14;91.38;96230.13;5135228;27;20082;-63
2023/10/21 04:13:02;;;;;;;16.10;10.18;;;;;;;10.16;92.39;96234.38;5135062;27;20393;-62
2023/10/21 04:15:29;;;;;;;18.05;8.98;;;;;;;10.19;93.17;96234.25;5134918;27;20051;-62
2023/10/21 04:17:57;;;;;;;9.98;8.60;;;;;;;10.19;92.30;96229.00;5134977;27;20054;-64
2023/10/21 04:20:25;;;;;;;10.88;9.02;;;;;;;10.16;92.14;96225.66;5135225;27;20051;-64
2023/10/21 04:22:52;;;;;;;18.58;9.05;;;;;;;10.17;92.26;96230.00;5134967;27;20101;-63
2023/10/21 04:25:19;;;;;;;13.40;8.93;;;;;;;10.14;92.40;96232.72;5134922;27;20049;-62
2023/10/21 04:27:48;;;;;;;15.02;9.35;;;;;;;10.09;92.94;96238.16;5134754;27;20480;-63
2023/10/21 04:30:15;;;;;;;17.00;9.60;;;;;;;10.06;93.02;96233.03;5134846;27;20049;-62
2023/10/21 04:32:43;;;;;;;15.23;9.98;;;;;;;10.07;93.64;96232.13;5134506;27;20107;-63
2023/10/21 04:35:12;;;;;;;19.33;9.68;;;;;;;10.17;93.17;96240.44;5134755;27;20051;-63
2023/10/21 04:37:40;;;;;;;12.27;9.32;;;;;;;10.19;93.01;96239.47;5134813;27;20051;-63
2023/10/21 04:40:08;;;;;;;14.15;9.07;;;;;;;10.24;92.26;96249.75;5134902;27;20079;-62
2023/10/21 04:42:35;;;;;;;10.45;7.95;;;;;;;10.27;92.40;96244.38;5134500;27;20047;-63
2023/10/21 04:45:03;;;;;;;17.30;9.77;;;;;;;10.28;92.35;96246.06;5135097;27;20175;-62
2023/10/21 04:47:32;;;;;;;14.23;8.07;;;;;;;10.32;92.07;96250.25;5134404;27;20047;-63
2023/10/21 04:50:00;;;;;;;10.80;7.40;;;;;;;10.35;92.14;96252.75;5134616;27;20043;-62
2023/10/21 04:52:28;;;;;;;21.90;9.23;;;;;;;10.36;92.33;96251.81;5134464;27;20126;-62
2023/10/21 04:54:56;;;;;;;11.38;8.85;;;;;;;10.41;92.15;96264.72;5134509;27;20054;-63
2023/10/21 04:57:23;;;;;;;11.75;8.02;;;;;;;10.41;92.16;96269.09;5134323;27;20039;-63
2023/10/21 04:59:51;;;;;;;14.15;8.40;;;;;;;10.43;91.65;96262.03;5134338;27;20053;-62
2023/10/21 05:02:19;;;;;;;12.77;9.95;;;;;;;10.50;92.50;96266.13;5134346;27;20047;-62
2023/10/21 05:04:46;;;;;;;12.65;8.70;;;;;;;10.60;92.25;96271.81;5134383;27;20047;-64
2023/10/21 05:07:13;;;;;;;11.55;8.52;;;;;;;10.59;92.15;96276.19;5134115;27;20043;-64
2023/10/21 05:09:42;;;;;;;15.25;7.85;;;;;;;10.72;91.92;96271.28;5134266;27;20112;-64
2023/10/21 05:12:10;;;;;;;13.90;7.53;;;;;;;10.80;91.28;96277.94;5134168;27;20062;-63
2023/10/21 05:14:37;;;;;;;13.57;9.15;;;;;;;10.87;91.57;96284.63;5134129;27;20065;-63
2023/10/21 05:17:05;;;;;;;11.75;7.03;;;;;;;11.02;91.72;96293.59;5133957;27;20075;-64
2023/10/21 05:19:33;;;;;;;11.75;7.03;;;;;;;11.49;91.69;96296.75;5134194;27;20047;-64
2023/10/21 05:22:00;;;;;;;11.60;5.72;;;;;;;12.29;89.17;96295.72;5134176;27;20059;-63
2023/10/21 05:24:27;;;;;;;11.40;6.30;;;;;;;13.14;83.36;96303.72;5134125;27;20078;-62
2023/10/21 05:26:56;;;;;;;6.80;4.88;;;;;;;13.99;77.87;96306.25;5134048;27;20083;-64
2023/10/21 05:29:23;;;;;;;11.15;4.55;;;;;;;14.83;73.52;96303.31;5138242;27;20122;-63
2023/10/21 05:31:50;;;;;;;8.27;4.00;;;;;;;15.62;69.47;96313.53;5138325;27;20047;-64
2023/10/21 05:34:19;;;;;;;6.28;3.47;;;;;;;16.45;66.19;96321.56;5138260;27;20047;-63
2023/10/21 05:36:46;;;;;;;5.90;2.97;;;;;;;17.23;61.99;96329.69;5138289;27;20039;-63
2023/10/21 05:39:14;;;;;;;7.32;2.70;;;;;;;18.02;58.65;96333.06;5138195;27;20393;-62
2023/10/21 05:41:42;;;;;;;7.93;2.72;;;;;;;18.77;56.82;96330.38;5138127;27;20076;-63
2023/10/21 05:44:10;;;;;;;6.22;3.50;;;;;;;19.44;55.30;96333.31;5138202;27;20386;-63
2023/10/21 05:46:38;;;;;;;9.32;3.90;;;;;;;20.10;52.92;96344.22;5137966;27;20054;-62
2023/10/21 05:49:06;;;;;;;7.70;4.18;;;;;;;20.77;52.34;96352.97;5137933;27;20043;-64
2023/10/21 05:51:33;;;;;;;8.57;4.15;;;;;;;21.52;50.68;96353.94;5137947;27;20055;-62
2023/10/21 05:54:01;;;;;;;5.05;3.25;;;;;;;22.26;48.41;96356.47;5138140;27;20043;-62
2023/10/21 05:56:32;;;;;;;3.72;2.40;;;;;;;22.93;46.97;96361.22;5137564;27;20084;-62
2023/10/21 05:58:59;;;;;;;5.82;2.85;;;;;;;23.38;45.76;96354.47;5137763;27;20079;-62
2023/10/21 06:01:28;;;;;;;5.63;3.45;;;;;;;23.80;45.76;96352.38;5137622;27;20484;-62
2023/10/21 06:03:56;;;;;;;11.02;3.95;;;;;;;24.31;44.78;96352.88;5137781;27;20051;-64
2023/10/21 06:06:23;;;;;;;6.45;3.55;;;;;;;24.90;43.17;96354.34;5137784;27;20050;-61
2023/10/21 06:08:51;;;;;;;7.15;4.03;;;;;;;25.55;42.62;96351.50;5137546;27;20062;-63
2023/10/21 06:11:21;;;;;;;7.30;2.95;;;;;;;26.19;41.51;96356.50;5137564;27;20122;-63
2023/10/21 06:13:50;;;;;;;4.55;2.60;;;;;;;26.92;40.17;96365.94;5137544;27;20058;-62
2023/10/21 06:16:17;;;;;;;3.97;3.10;;;;;;;27.59;38.96;96356.03;5137619;27;20043;-61
2023/10/21 06:18:46;;;;;;;7.68;3.20;;;;;;;28.22;37.65;96361.59;5137874;27;20047;-62
2023/10/21 06:21:14;;;;;;;3.22;2.17;;;;;;;28.78;36.38;96362.53;5137343;27;20057;-64
2023/10/21 06:23:42;;;;;;;35.10;25.00;;;;;;;29.10;36.31;96362.47;5137309;27;20096;-64
2023/10/21 06:26:12;;;;;;;6.95;2.97;;;;;;;29.46;36.26;96369.91;5137298;27;20130;-62
2023/10/21 06:28:39;;;;;;;7.78;3.10;;;;;;;29.73;35.70;96364.13;5137324;27;20054;-64
2023/10/21 06:31:07;;;;;;;6.00;3.47;;;;;;;30.04;35.07;96371.22;5137137;27;20063;-62
2023/10/21 06:33:35;;;;;;;8.90;3.30;;;;;;;30.47;34.70;96375.09;5137169;27;20083;-62
2023/10/21 06:36:04;;;;;;;8.15;3.40;;;;;;;31.01;34.05;96373.00;5137251;27;20461;-63
2023/10/21 06:38:31;;;;;;;5.60;3.60;;;;;;;31.58;33.17;96373.13;5136713;27;20051;-63
2023/10/21 06:40:59;;;;;;;7.50;3.15;;;;;;;32.14;32.75;96376.81;5137170;27;20065;-65
2023/10/21 06:43:26;;;;;;;4.68;2.95;;;;;;;32.42;31.96;96385.91;5137438;27;20065;-63
2023/10/21 06:45:53;;;;;;;6.63;3.35;;;;;;;32.70;31.16;96379.56;5136939;27;20047;-63
2023/10/21 06:48:21;;;;;;;6.68;3.83;;;;;;;33.02;30.40;96381.72;5136848;27;20093;-63
2023/10/21 06:50:48;;;;;;;7.05;3.50;;;;;;;33.44;29.79;96381.59;5136972;27;20047;-65
2023/10/21 06:53:18;;;;;;;8.65;2.72;;;;;;;33.78;30.27;96387.00;5136798;27;20075;-61
2023/10/21 06:55:46;;;;;;;9.30;3.33;;;;;;;34.29;29.53;96392.78;5136622;27;20499;-62
2023/10/21 06:58:13;;;;;;;9.00;3.65;;;;;;;34.63;28.86;96387.19;5136643;27;20058;-63
2023/10/21 07:00:41;;;;;;;7.65;3.92;;;;;;;34.91;27.95;96386.88;5136928;27;20046;-63
2023/10/21 07:03:09;;;;;;;13.55;3.78;;;;;;;35.21;27.67;96392.78;5136798;27;20545;-64
2023/10/21 07:05:36;;;;;;;7.25;3.50;;;;;;;35.47;27.10;96397.19;5136470;27;20500;-62
2023/10/21 07:08:05;;;;;;;12.77;3.42;;;;;;;35.49;27.00;96400.53;5136474;27;20131;-63
2023/10/21 07:10:34;;;;;;;11.07;4.07;;;;;;;35.51;27.12;96403.84;5136448;27;20062;-63
2023/10/21 07:13:02;;;;;;;6.13;3.75;;;;;;;35.73;27.33;96392.59;5136431;27;20284;-62
2023/10/21 07:15:31;;;;;;;9.20;4.47;;;;;;;36.00;25.90;96402.38;5136223;27;20043;-65
2023/10/21 07:17:58;;;;;;;10.25;4.28;;;;;;;36.41;25.71;96397.34;5136305;27;20082;-64
2023/10/21 07:20:26;;;;;;;12.23;4.15;;;;;;;36.31;24.75;96397.06;5136148;27;20039;-64
2023/10/21 07:22:54;;;;;;;7.57;4.53;;;;;;;36.52;23.93;96393.03;5136090;27;20050;-64
2023/10/21 07:25:21;;;;;;;9.95;4.00;;;;;;;36.74;24.85;96401.56;5136091;27;20039;-65
2023/10/21 07:27:50;;;;;;;5.97;3.90;;;;;;;36.52;25.52;96393.88;5135933;27;20089;-63
2023/10/21 07:30:17;;;;;;;13.73;4.27;;;;;;;36.34;25.84;96402.03;5135963;27;20047;-64
2023/10/21 07:32:45;;;;;;;9.60;3.90;;;;;;;36.08;25.80;96404.78;5135958;27;20291;-61
2023/10/21 07:35:12;;;;;;;7.57;3.25;;;;;;;35.77;26.41;96401.97;5136066;27;20130;-63
2023/10/21 07:37:39;;;;;;;7.68;3.42;;;;;;;35.31;25.74;96403.16;5136064;27;20135;-62
2023/10/21 07:40:09;;;;;;;8.57;4.03;;;;;;;34.94;26.24;96403.78;5135928;27;20051;-64
2023/10/21 07:42:36;;;;;;;12.15;4.32;;;;;;;34.50;26.24;96394.38;5135813;27;20079;-64
2023/10/21 07:45:06;;;;;;;11.68;4.10;;;;;;;34.02;27.43;96396.38;5135700;27;20468;-64
2023/10/21 07:47:36;;;;;;;10.18;3.90;;;;;;;33.51;28.38;96398.69;5135709;27;20487;-62
2023/10/21 07:50:06;;;;;;;;;;;;;;;33.10;27.60;96399.66;5135303;27;20054;-61
2023/10/21 07:52:35;;;;;;;8.90;4.20;;;;;;;32.58;29.43;96386.59;5136005;27;20488;-62
2023/10/21 07:55:02;;;;;;;12.30;4.18;;;;;;;32.06;29.13;96384.25;5135409;27;20043;-61
2023/10/21 07:58:13;;;;;;;;;;;;;;;;;;;;;
2023/10/21 08:01:26;;;;;;;12.07;3.63;;;;;;;31.23;30.25;96383.78;5135380;27;20500;-63
2023/10/21 08:08:08;;;;;;;5.20;3.63;;;;;;;30.65;33.62;96380.09;4961865;28;20666;-62
2023/10/21 08:10:36;;;;;;;9.85;4.07;;;;;;;30.42;34.92;96381.06;4889006;28;20062;-61
2023/10/21 08:13:03;;;;;;;7.97;4.03;;;;;;;30.32;33.92;96372.41;5078652;27;20080;-64
2023/10/21 08:15:31;;;;;;;9.95;3.45;;;;;;;30.33;32.56;96376.78;5135173;27;20446;-64
2023/10/21 08:17:59;;;;;;;8.90;4.03;;;;;;;30.37;31.79;96375.41;5135098;27;20047;-63
2023/10/21 08:20:26;;;;;;;10.18;4.30;;;;;;;30.26;31.48;96382.09;5135332;27;20055;-62
2023/10/21 08:22:55;;;;;;;13.18;3.80;;;;;;;30.05;31.50;96378.28;5135334;27;20043;-63
2023/10/21 08:25:22;;;;;;;11.57;3.60;;;;;;;30.11;31.43;96371.28;5134973;27;20051;-61
2023/10/21 08:27:49;;;;;;;17.08;3.40;;;;;;;30.15;29.65;96375.28;5134910;27;20125;-62
2023/10/21 08:30:16;;;;;;;8.35;3.10;;;;;;;30.23;29.19;96371.69;5134881;27;20047;-61
2023/10/21 08:32:44;;;;;;;10.65;3.30;;;;;;;30.25;29.30;96370.47;5134776;27;20052;-62
2023/10/21 08:35:13;;;;;;;7.32;3.47;;;;;;;30.32;30.29;96372.41;5134729;27;20134;-61
2023/10/21 08:37:40;;;;;;;12.32;3.90;;;;;;;30.33;30.99;96366.00;5134828;27;20126;-63
2023/10/21 08:40:15;;;;;;;38.20;4.70;;;;;;;30.29;30.42;96370.94;5134802;27;20043;-62
2023/10/21 08:42:42;;;;;;;15.40;3.92;;;;;;;30.34;30.49;96363.09;5134697;27;20560;-63
2023/10/21 08:45:11;;;;;;;62.45;5.60;;;;;;;30.28;30.11;96374.66;5134649;27;20050;-62
2023/10/21 08:47:42;;;;;;;27.67;3.17;;;;;;;30.29;28.96;96375.50;5134532;27;20097;-63
2023/10/21 08:50:12;;;;;;;230.43;12.57;;;;;;;30.30;28.91;96378.00;5134423;27;20043;-62
2023/10/21 08:52:41;;;;;;;79.22;7.95;;;;;;;30.28;28.35;96374.66;5134528;27;20130;-60
2023/10/21 08:55:12;;;;;;;8.57;3.28;;;;;;;30.35;28.96;96370.19;5134309;27;20050;-62
2023/10/21 08:57:41;;;;;;;11.18;3.70;;;;;;;30.37;28.54;96372.69;5134385;27;20537;-61
2023/10/21 09:00:10;;;;;;;51.40;4.45;;;;;;;30.42;29.81;96362.16;5134479;27;20039;-61
2023/10/21 09:02:38;;;;;;;12.15;3.65;;;;;;;30.47;28.79;96364.31;5134208;27;20078;-61
2023/10/21 09:05:10;;;;;;;6.80;2.95;;;;;;;30.56;27.70;96363.16;5134370;27;20408;-61
2023/10/21 09:07:48;;;;;;;10.57;3.78;;;;;;;30.61;28.33;96362.59;5134189;27;20047;-62
2023/10/21 09:10:20;;;;;;;4.72;2.70;;;;;;;30.51;27.41;96354.78;5134104;27;20090;-64
2023/10/21 09:12:48;;;;;;;12.00;3.65;;;;;;;30.50;27.01;96356.69;5134153;27;20438;-62
2023/10/21 09:15:15;;;;;;;15.77;4.03;;;;;;;30.53;29.18;96355.47;5134094;27;20061;-62
2023/10/21 09:17:46;;;;;;;14.25;3.10;;;;;;;30.49;27.40;96346.91;5134173;27;20385;-63
2023/10/21 09:20:15;;;;;;;9.75;2.92;;;;;;;30.49;27.24;96349.59;5133981;27;20133;-61
2023/10/21 09:22:44;;;;;;;16.08;3.70;;;;;;;30.58;27.19;96361.09;5134001;27;20062;-63
2023/10/21 09:25:15;;;;;;;8.57;3.20;;;;;;;30.51;28.62;96346.72;5134051;28;20133;-63
2023/10/21 09:27:44;;;;;;;11.25;3.30;;;;;;;30.57;26.89;96343.25;5134039;28;20073;-63
2023/10/21 09:30:16;;;;;;;12.38;3.58;;;;;;;30.57;26.13;96337.84;5134030;28;20055;-62
2023/10/21 09:32:46;;;;;;;10.45;3.60;;;;;;;30.57;27.83;96347.81;5133998;27;20446;-63
2023/10/21 09:35:21;;;;;;;21.57;4.20;;;;;;;30.42;27.77;96337.03;5133982;28;20070;-63
2023/10/21 09:37:49;;;;;;;10.60;3.42;;;;;;;30.48;28.11;96339.84;5134195;27;20044;-63
2023/10/21 09:40:16;;;;;;;9.48;3.17;;;;;;;30.52;28.94;96329.50;5133925;27;20047;-62
2023/10/21 09:42:47;;;;;;;13.48;3.53;;;;;;;30.56;29.56;96338.03;5134091;27;20040;-62
2023/10/21 09:45:15;;;;;;;9.65;3.58;;;;;;;30.52;29.43;96329.50;5134182;27;20047;-62
2023/10/21 09:47:45;;;;;;;14.30;4.15;;;;;;;30.54;28.97;96329.28;5133822;27;20043;-62
2023/10/21 09:50:14;;;;;;;15.90;4.18;;;;;;;30.55;29.83;96328.28;5133600;27;20051;-63
2023/10/21 09:52:51;;;;;;;9.90;4.20;;;;;;;30.34;30.83;96325.34;5133765;27;20062;-64
2023/10/21 09:55:24;;;;;;;15.57;4.28;;;;;;;30.25;32.00;96324.63;5133704;27;20040;-64
2023/10/21 09:57:54;;;;;;;10.50;3.83;;;;;;;30.18;32.28;96312.94;5133819;28;20141;-62
2023/10/21 10:00:24;;;;;;;11.07;4.00;;;;;;;30.09;32.40;96316.72;5133761;27;20047;-62
2023/10/21 10:02:53;;;;;;;11.98;4.28;;;;;;;30.04;32.30;96320.00;5134017;27;20622;-62
2023/10/21 10:05:21;;;;;;;10.43;4.13;;;;;;;29.86;33.06;96317.69;5133595;28;20043;-62
2023/10/21 10:07:50;;;;;;;9.43;4.40;;;;;;;29.78;33.19;96318.59;5133831;27;20127;-62
2023/10/21 10:10:19;;;;;;;10.68;4.20;;;;;;;29.69;33.30;96317.03;5133520;27;20089;-61
2023/10/21 10:12:53;;;;;;;12.40;4.43;;;;;;;29.62;33.78;96312.38;5133908;27;20051;-63
2023/10/21 10:15:37;;;;;;;12.60;4.53;;;;;;;29.60;33.76;96321.66;5137445;27;20047;-61
2023/10/21 10:18:09;;;;;;;9.85;4.22;;;;;;;29.51;33.75;96313.66;5137428;27;20055;-63
2023/10/21 10:20:46;;;;;;;12.18;4.47;;;;;;;29.42;33.46;96305.81;5137280;27;20129;-62
2023/10/21 10:23:13;;;;;;;12.40;3.90;;;;;;;29.30;32.80;96313.50;5137338;27;20536;-61
2023/10/21 10:25:43;;;;;;;7.47;3.78;;;;;;;29.35;32.23;96311.13;5137234;27;20039;-63
2023/10/21 10:28:17;;;;;;;11.00;4.32;;;;;;;29.35;33.39;96313.81;5137353;27;20054;-61
2023/10/21 10:30:46;;;;;;;12.40;4.93;;;;;;;29.32;33.67;96309.63;5137372;27;20101;-63
2023/10/21 10:33:17;;;;;;;11.02;4.35;;;;;;;29.28;33.54;96304.78;5137045;27;20138;-62
2023/10/21 10:35:48;;;;;;;9.15;4.07;;;;;;;29.30;33.89;96302.75;5137195;27;20047;-61
2023/10/21 10:38:25;;;;;;;13.38;5.18;;;;;;;29.33;33.74;96295.16;5137084;27;20055;-63
2023/10/21 10:40:53;;;;;;;7.40;3.85;;;;;;;29.36;33.06;96291.25;5137181;27;20138;-62
2023/10/21 10:43:21;;;;;;;15.45;4.57;;;;;;;29.38;33.10;96300.81;5137078;27;20071;-62
2023/10/21 10:45:51;;;;;;;9.63;4.53;;;;;;;29.40;33.45;96297.91;5136953;27;20488;-63
2023/10/21 10:48:18;;;;;;;12.10;4.70;;;;;;;29.39;33.08;96290.88;5136964;27;20450;-63
2023/10/21 10:50:47;;;;;;;14.68;4.22;;;;;;;29.38;33.49;96291.91;5136612;27;20074;-64
2023/10/21 10:53:16;;;;;;;13.25;4.32;;;;;;;29.39;32.26;96291.72;5137041;27;20039;-62
2023/10/21 10:55:53;;;;;;;14.98;4.60;;;;;;;29.36;31.75;96294.78;5136815;27;20133;-63
2023/10/21 10:58:22;;;;;;;8.60;4.10;;;;;;;29.28;31.73;96296.72;5136794;27;20043;-60
2023/10/21 11:00:52;;;;;;;17.85;4.40;;;;;;;29.28;31.82;96294.03;5136779;27;20047;-61
2023/10/21 11:03:28;;;;;;;13.30;4.28;;;;;;;29.24;32.10;96288.16;5136546;27;20043;-62
2023/10/21 11:05:57;;;;;;;14.30;4.55;;;;;;;29.21;31.79;96286.69;5136559;27;20054;-60
2023/10/21 11:08:26;;;;;;;12.43;4.75;;;;;;;29.27;31.61;96282.41;5136619;27;20051;-63
2023/10/21 11:11:03;;;;;;;9.77;4.10;;;;;;;29.30;30.74;96279.34;5136413;27;20062;-60
2023/10/21 11:13:31;;;;;;;9.20;3.80;;;;;;;29.19;30.81;96279.81;5136395;27;20044;-61
2023/10/21 11:16:04;;;;;;;14.57;4.43;;;;;;;29.12;30.55;96280.53;5136488;27;20043;-60
2023/10/21 11:18:32;;;;;;;10.75;4.20;;;;;;;29.11;30.33;96276.16;5136246;27;20396;-61
2023/10/21 11:20:59;;;;;;;16.10;3.58;;;;;;;29.08;29.87;96283.78;5136447;27;20047;-64
2023/10/21 11:23:28;;;;;;;11.15;4.47;;;;;;;29.09;31.07;96272.81;5136120;27;20134;-60
2023/10/21 11:25:57;;;;;;;10.13;3.35;;;;;;;29.14;30.40;96280.34;5134829;27;20062;-62
2023/10/21 11:28:26;;;;;;;4.70;3.00;;;;;;;29.23;30.11;96281.91;5136171;27;20058;-61
2023/10/21 11:30:54;;;;;;;11.27;3.20;;;;;;;29.29;29.33;96280.38;5136075;27;20500;-61
2023/10/21 11:33:23;;;;;;;14.38;3.75;;;;;;;29.28;28.72;96275.19;5135847;27;20054;-63
2023/10/21 11:35:53;;;;;;;8.30;3.15;;;;;;;29.17;27.88;96273.75;5136002;27;20046;-62
2023/10/21 11:38:22;;;;;;;14.45;4.03;;;;;;;29.07;29.20;96274.84;5135853;27;20485;-64
2023/10/21 11:40:49;;;;;;;12.73;4.18;;;;;;;29.14;28.25;96269.59;5136047;27;20047;-63